sensor_id;sensor_type;location;lat;lon;timestamp;temperature;humidity
45313;SHT31;68267;51.540;5.854;2023-04-29T00:11:25;9.8;91.9
45313;SHT31;68267;51.540;5.854;2023-04-29T00:24:45;9.6;90.9
45313;SHT31;68267;51.540;5.854;2023-04-29T00:38:05;9.6;91.0
45313;SHT31;68267;51.540;5.854;2023-04-29T00:51:24;9.4;92.0
45313;SHT31;68267;51.540;5.854;2023-04-29T01:04:44;9.3;91.5
45313;SHT31;68267;51.540;5.854;2023-04-29T01:18:04;9.3;91.4
45313;SHT31;68267;51.540;5.854;2023-04-29T01:31:24;9.3;91.7
45313;SHT31;68267;51.540;5.854;2023-04-29T01:44:43;9.3;91.8
45313;SHT31;68267;51.540;5.854;2023-04-29T01:58:03;9.3;91.7
45313;SHT31;68267;51.540;5.854;2023-04-29T02:11:23;9.2;92.1
45313;SHT31;68267;51.540;5.854;2023-04-29T02:24:43;9.2;92.3
45313;SHT31;68267;51.540;5.854;2023-04-29T02:38:02;9.3;92.8
45313;SHT31;68267;51.540;5.854;2023-04-29T02:51:22;9.3;93.3
45313;SHT31;68267;51.540;5.854;2023-04-29T03:04:42;9.2;93.5
45313;SHT31;68267;51.540;5.854;2023-04-29T03:18:01;9.3;93.8
45313;SHT31;68267;51.540;5.854;2023-04-29T03:31:21;9.1;94.1
45313;SHT31;68267;51.540;5.854;2023-04-29T03:44:41;9.2;94.0
45313;SHT31;68267;51.540;5.854;2023-04-29T03:58:01;9.1;94.1
45313;SHT31;68267;51.540;5.854;2023-04-29T04:11:21;9.1;93.9
45313;SHT31;68267;51.540;5.854;2023-04-29T04:24:40;9.1;94.1
45313;SHT31;68267;51.540;5.854;2023-04-29T04:38:00;9.1;93.9
45313;SHT31;68267;51.540;5.854;2023-04-29T04:51:20;9.2;93.8
45313;SHT31;68267;51.540;5.854;2023-04-29T05:04:39;9.3;93.6
45313;SHT31;68267;51.540;5.854;2023-04-29T05:17:59;9.3;93.1
45313;SHT31;68267;51.540;5.854;2023-04-29T05:31:19;9.2;93.1
45313;SHT31;68267;51.540;5.854;2023-04-29T05:44:38;9.3;93.0
45313;SHT31;68267;51.540;5.854;2023-04-29T05:57:58;9.4;92.9
45313;SHT31;68267;51.540;5.854;2023-04-29T06:11:17;9.5;91.9
45313;SHT31;68267;51.540;5.854;2023-04-29T06:24:37;9.8;91.3
45313;SHT31;68267;51.540;5.854;2023-04-29T06:37:57;10.0;90.4
45313;SHT31;68267;51.540;5.854;2023-04-29T06:51:16;10.3;89.6
45313;SHT31;68267;51.540;5.854;2023-04-29T07:04:36;10.3;87.6
45313;SHT31;68267;51.540;5.854;2023-04-29T07:17:55;10.4;88.9
45313;SHT31;68267;51.540;5.854;2023-04-29T07:31:15;10.6;88.4
45313;SHT31;68267;51.540;5.854;2023-04-29T07:44:35;10.7;86.3
45313;SHT31;68267;51.540;5.854;2023-04-29T07:57:54;11.1;84.3
45313;SHT31;68267;51.540;5.854;2023-04-29T08:11:14;11.4;83.2
45313;SHT31;68267;51.540;5.854;2023-04-29T08:24:34;11.5;82.7
45313;SHT31;68267;51.540;5.854;2023-04-29T08:37:54;11.9;81.4
45313;SHT31;68267;51.540;5.854;2023-04-29T08:51:13;12.0;79.9
45313;SHT31;68267;51.540;5.854;2023-04-29T09:04:33;12.5;76.6
45313;SHT31;68267;51.540;5.854;2023-04-29T09:17:53;13.3;74.7
45313;SHT31;68267;51.540;5.854;2023-04-29T09:31:12;13.7;71.3
45313;SHT31;68267;51.540;5.854;2023-04-29T09:44:32;13.7;71.7
45313;SHT31;68267;51.540;5.854;2023-04-29T09:57:52;13.8;70.6
45313;SHT31;68267;51.540;5.854;2023-04-29T10:11:12;15.3;67.1
45313;SHT31;68267;51.540;5.854;2023-04-29T10:24:32;14.9;66.2
45313;SHT31;68267;51.540;5.854;2023-04-29T10:37:52;15.0;66.3
45313;SHT31;68267;51.540;5.854;2023-04-29T10:51:12;16.5;62.7
45313;SHT31;68267;51.540;5.854;2023-04-29T11:04:31;15.8;62.2
45313;SHT31;68267;51.540;5.854;2023-04-29T11:17:51;16.8;60.9
45313;SHT31;68267;51.540;5.854;2023-04-29T11:31:11;15.5;65.3
45313;SHT31;68267;51.540;5.854;2023-04-29T11:44:30;15.1;66.6
45313;SHT31;68267;51.540;5.854;2023-04-29T11:57:50;15.0;67.2
45313;SHT31;68267;51.540;5.854;2023-04-29T12:11:10;15.3;65.5
45313;SHT31;68267;51.540;5.854;2023-04-29T12:24:30;14.6;64.2
45313;SHT31;68267;51.540;5.854;2023-04-29T12:37:49;14.7;64.7
45313;SHT31;68267;51.540;5.854;2023-04-29T12:51:09;15.1;62.4
45313;SHT31;68267;51.540;5.854;2023-04-29T13:04:29;15.9;60.7
45313;SHT31;68267;51.540;5.854;2023-04-29T13:17:49;15.7;60.8
45313;SHT31;68267;51.540;5.854;2023-04-29T13:31:09;16.1;57.9
45313;SHT31;68267;51.540;5.854;2023-04-29T13:44:28;16.6;57.8
45313;SHT31;68267;51.540;5.854;2023-04-29T13:57:48;16.8;58.6
45313;SHT31;68267;51.540;5.854;2023-04-29T14:11:08;16.9;56.7
45313;SHT31;68267;51.540;5.854;2023-04-29T14:24:28;17.0;55.7
45313;SHT31;68267;51.540;5.854;2023-04-29T14:37:47;17.0;56.1
45313;SHT31;68267;51.540;5.854;2023-04-29T14:51:07;17.1;52.3
45313;SHT31;68267;51.540;5.854;2023-04-29T15:04:27;17.8;51.9
45313;SHT31;68267;51.540;5.854;2023-04-29T15:17:46;18.3;49.9
45313;SHT31;68267;51.540;5.854;2023-04-29T15:31:06;18.0;51.5
45313;SHT31;68267;51.540;5.854;2023-04-29T15:44:26;18.0;52.0
45313;SHT31;68267;51.540;5.854;2023-04-29T15:57:46;17.6;52.4
45313;SHT31;68267;51.540;5.854;2023-04-29T16:11:06;17.1;55.4
45313;SHT31;68267;51.540;5.854;2023-04-29T16:24:25;16.7;58.4
45313;SHT31;68267;51.540;5.854;2023-04-29T16:37:45;16.5;57.3
45313;SHT31;68267;51.540;5.854;2023-04-29T16:51:04;16.1;56.9
45313;SHT31;68267;51.540;5.854;2023-04-29T17:04:24;16.2;58.8
45313;SHT31;68267;51.540;5.854;2023-04-29T17:17:44;16.1;59.2
45313;SHT31;68267;51.540;5.854;2023-04-29T17:31:04;16.0;59.5
45313;SHT31;68267;51.540;5.854;2023-04-29T17:44:23;15.9;59.3
45313;SHT31;68267;51.540;5.854;2023-04-29T17:57:43;15.7;60.4
45313;SHT31;68267;51.540;5.854;2023-04-29T18:11:03;15.5;62.2
45313;SHT31;68267;51.540;5.854;2023-04-29T18:24:22;15.2;63.6
45313;SHT31;68267;51.540;5.854;2023-04-29T18:37:42;15.0;68.1
45313;SHT31;68267;51.540;5.854;2023-04-29T18:51:02;14.6;67.1
45313;SHT31;68267;51.540;5.854;2023-04-29T19:04:22;13.9;69.2
45313;SHT31;68267;51.540;5.854;2023-04-29T19:17:41;13.2;71.3
45313;SHT31;68267;51.540;5.854;2023-04-29T19:31:01;12.9;71.2
45313;SHT31;68267;51.540;5.854;2023-04-29T19:44:20;12.8;69.9
45313;SHT31;68267;51.540;5.854;2023-04-29T19:57:40;12.7;69.4
45313;SHT31;68267;51.540;5.854;2023-04-29T20:11:00;12.7;69.3
45313;SHT31;68267;51.540;5.854;2023-04-29T20:24:19;12.6;69.9
45313;SHT31;68267;51.540;5.854;2023-04-29T20:37:39;12.2;70.2
45313;SHT31;68267;51.540;5.854;2023-04-29T20:50:59;11.7;71.2
45313;SHT31;68267;51.540;5.854;2023-04-29T21:04:18;11.1;72.0
45313;SHT31;68267;51.540;5.854;2023-04-29T21:17:38;10.6;73.2
45313;SHT31;68267;51.540;5.854;2023-04-29T21:30:58;10.2;74.7
45313;SHT31;68267;51.540;5.854;2023-04-29T21:44:17;9.9;75.2
45313;SHT31;68267;51.540;5.854;2023-04-29T21:57:37;9.6;76.2
45313;SHT31;68267;51.540;5.854;2023-04-29T22:10:56;9.2;76.8
45313;SHT31;68267;51.540;5.854;2023-04-29T22:24:16;9.0;77.8
45313;SHT31;68267;51.540;5.854;2023-04-29T22:37:36;8.7;78.4
45313;SHT31;68267;51.540;5.854;2023-04-29T22:50:55;8.4;79.4
45313;SHT31;68267;51.540;5.854;2023-04-29T23:04:15;8.1;81.0
45313;SHT31;68267;51.540;5.854;2023-04-29T23:17:35;7.9;82.5
45313;SHT31;68267;51.540;5.854;2023-04-29T23:30:55;8.0;84.7
45313;SHT31;68267;51.540;5.854;2023-04-29T23:44:14;7.8;84.1
45313;SHT31;68267;51.540;5.854;2023-04-29T23:57:34;7.5;83.8
